Wendel, Pennsylvania
Current Conditions -  °F | °C
As of 2:15 PM on Sunday 21 Dec 2014 (Local Time) from KAGC Reporting Station
Haze Haze  
Wind Chill: 32°   Ceiling: 3900
Heat Index: 32°   Visibility: 6mi
Dew Point: 19°   Wind: 0mph
Humidity: 59%   Direction: NA
Pressure: 30.24"   Gusts: NA
Location:  40.3°N, 79.69°W
Report Text: KAGC 211915Z 00000KT 6SM HZ FEW025 OVC039 00/M07 A3024 RMK AO2 T00001072
Loading
Personal Weather Stations






























Interactive Weather Map New forecast layout! Learn more

10-Day Weather Forecast

Advertisements
Track Severe Weather on mobile